createdAt,value
2023-05-12T00:00:15.154Z,98160.59
2023-05-12T00:03:04.658Z,98158.19
2023-05-12T00:05:32.432Z,98157.50
2023-05-12T00:07:59.847Z,98155.00
2023-05-12T00:10:28.662Z,98156.78
2023-05-12T00:12:56.069Z,98158.75
2023-05-12T00:15:23.685Z,98151.06
2023-05-12T00:17:52.482Z,98153.59
2023-05-12T00:20:20.452Z,98160.03
2023-05-12T00:22:47.986Z,98161.56
2023-05-12T00:25:15.536Z,98159.91
2023-05-12T00:27:42.798Z,98159.44
2023-05-12T00:30:11.728Z,98156.47
2023-05-12T00:32:47.863Z,98160.53
2023-05-12T00:35:17.167Z,98153.75
2023-05-12T00:37:45.630Z,98157.69
2023-05-12T00:40:13.257Z,98155.19
2023-05-12T00:42:40.715Z,98151.50
2023-05-12T00:45:09.305Z,98149.97
2023-05-12T00:47:37.454Z,98155.81
2023-05-12T00:50:06.939Z,98155.94
2023-05-12T00:52:34.725Z,98148.78
2023-05-12T00:55:03.647Z,98159.41
2023-05-12T00:57:31.528Z,98153.41
2023-05-12T00:59:59.159Z,98149.47
2023-05-12T01:02:26.563Z,98152.09
2023-05-12T01:04:54.273Z,98152.81
2023-05-12T01:07:26.521Z,98156.34
2023-05-12T01:09:58.190Z,98154.44
2023-05-12T01:12:28.149Z,98160.28
2023-05-12T01:14:57.529Z,98158.94
2023-05-12T01:17:34.499Z,98160.34
2023-05-12T01:20:08.438Z,98165.25
2023-05-12T01:22:38.219Z,98166.66
2023-05-12T01:25:12.153Z,98169.53
2023-05-12T01:27:42.107Z,98171.31
2023-05-12T01:30:13.491Z,98166.38
2023-05-12T01:32:42.166Z,98167.50
2023-05-12T01:35:10.050Z,98170.69
2023-05-12T01:37:37.610Z,98164.72
2023-05-12T01:40:05.922Z,98169.47
2023-05-12T01:42:33.380Z,98173.31
2023-05-12T01:45:00.955Z,98165.69
2023-05-12T01:47:28.312Z,98162.47
2023-05-12T01:49:55.948Z,98161.63
2023-05-12T01:52:23.290Z,98170.50
2023-05-12T01:54:51.536Z,98166.34
2023-05-12T01:57:19.121Z,98172.09
2023-05-12T01:59:46.681Z,98163.84
2023-05-12T02:02:14.116Z,98172.84
2023-05-12T02:04:41.939Z,98166.03
2023-05-12T02:07:09.351Z,98165.66
2023-05-12T02:09:36.992Z,98168.28
2023-05-12T02:12:05.008Z,98169.84
2023-05-12T02:14:32.650Z,98171.25
2023-05-12T02:16:59.939Z,98167.56
2023-05-12T02:19:29.861Z,98173.84
2023-05-12T02:21:58.249Z,98170.28
2023-05-12T02:24:25.913Z,98168.72
2023-05-12T02:26:53.144Z,98166.97
2023-05-12T02:29:20.741Z,98171.88
2023-05-12T02:31:48.032Z,98171.56
2023-05-12T02:34:15.704Z,98177.50
2023-05-12T02:36:43.026Z,98171.13
2023-05-12T02:39:10.687Z,98178.25
2023-05-12T02:41:37.984Z,98175.88
2023-05-12T02:44:05.679Z,98176.50
2023-05-12T02:46:32.974Z,98176.22
2023-05-12T02:49:00.517Z,98175.88
2023-05-12T02:51:27.973Z,98181.22
2023-05-12T02:53:55.492Z,98169.31
2023-05-12T02:56:23.008Z,98172.88
2023-05-12T02:58:50.767Z,98171.38
2023-05-12T03:01:18.096Z,98170.97
2023-05-12T03:03:46.363Z,98172.97
2023-05-12T03:06:14.111Z,98169.53
2023-05-12T03:08:41.831Z,98169.53
2023-05-12T03:11:09.360Z,98170.34
2023-05-12T03:13:37.016Z,98168.69
2023-05-12T03:16:05.955Z,98177.69
2023-05-12T03:18:33.583Z,98176.00
2023-05-12T03:21:02.267Z,98175.09
2023-05-12T03:23:29.962Z,98176.63
2023-05-12T03:25:57.289Z,98179.88
2023-05-12T03:28:24.971Z,98179.34
2023-05-12T03:30:52.260Z,98177.88
2023-05-12T03:33:19.862Z,98177.56
2023-05-12T03:35:47.424Z,98174.00
2023-05-12T03:38:15.029Z,98176.00
2023-05-12T03:40:42.453Z,98178.50
2023-05-12T03:43:10.004Z,98176.84
2023-05-12T03:45:37.315Z,98173.81
2023-05-12T03:48:05.287Z,98172.78
2023-05-12T03:50:32.587Z,98170.88
2023-05-12T03:53:03.575Z,98182.91
2023-05-12T03:55:30.810Z,98188.94
2023-05-12T03:57:58.373Z,98178.59
2023-05-12T04:00:25.686Z,98176.00
2023-05-12T04:02:53.295Z,98179.47
2023-05-12T04:05:20.845Z,98184.34
2023-05-12T04:07:48.540Z,98181.31
2023-05-12T04:10:15.962Z,98184.13
2023-05-12T04:12:43.584Z,98189.59
2023-05-12T04:15:11.677Z,98193.09
2023-05-12T04:17:39.298Z,98191.44
2023-05-12T04:20:08.169Z,98193.84
2023-05-12T04:22:38.037Z,98200.66
2023-05-12T04:25:05.940Z,98202.81
2023-05-12T04:27:33.537Z,98200.63
2023-05-12T04:30:00.868Z,98199.34
2023-05-12T04:32:29.081Z,98204.34
2023-05-12T04:37:24.416Z,98198.59
2023-05-12T04:39:51.749Z,98195.97
2023-05-12T04:42:19.402Z,98198.03
2023-05-12T04:44:46.831Z,98207.53
2023-05-12T04:47:14.459Z,98195.09
2023-05-12T04:49:41.716Z,98199.88
2023-05-12T04:52:09.357Z,98206.75
2023-05-12T04:54:36.747Z,98203.81
2023-05-12T04:57:04.846Z,98206.06
2023-05-12T04:59:32.702Z,98207.72
2023-05-12T05:02:00.484Z,98219.91
2023-05-12T05:04:28.105Z,98213.69
2023-05-12T05:06:55.806Z,98215.34
2023-05-12T05:09:23.142Z,98216.03
2023-05-12T05:14:41.545Z,98212.28
2023-05-12T05:17:11.398Z,98205.03
2023-05-12T05:19:53.115Z,98219.31
2023-05-12T05:22:25.709Z,98215.19
2023-05-12T05:24:53.090Z,98211.94
2023-05-12T05:27:20.901Z,98211.03
2023-05-12T05:29:49.486Z,98206.13
2023-05-12T05:32:17.455Z,98219.41
2023-05-12T05:34:44.822Z,98212.97
2023-05-12T05:37:13.025Z,98216.94
2023-05-12T05:39:40.510Z,98212.41
2023-05-12T05:42:08.067Z,98210.75
2023-05-12T05:44:36.025Z,98217.91
2023-05-12T05:47:04.160Z,98208.84
2023-05-12T05:49:31.568Z,98218.03
2023-05-12T05:51:59.183Z,98221.25
2023-05-12T05:54:26.924Z,98218.88
2023-05-12T05:56:54.641Z,98218.13
2023-05-12T05:59:29.305Z,98220.97
2023-05-12T06:01:56.953Z,98225.72
2023-05-12T06:04:24.396Z,98220.47
2023-05-12T06:06:52.097Z,98228.72
2023-05-12T06:09:20.047Z,98222.97
2023-05-12T06:11:47.658Z,98232.09
2023-05-12T06:14:15.002Z,98231.56
2023-05-12T06:16:42.630Z,98234.53
2023-05-12T06:19:10.054Z,98230.09
2023-05-12T06:21:37.920Z,98224.69
2023-05-12T06:24:05.398Z,98231.09
2023-05-12T06:26:34.049Z,98234.38
2023-05-12T06:29:02.270Z,98239.50
2023-05-12T06:31:30.155Z,98242.50
2023-05-12T06:33:57.374Z,98228.59
2023-05-12T06:36:25.020Z,98233.75
2023-05-12T06:38:52.396Z,98227.34
2023-05-12T06:41:20.039Z,98232.25
2023-05-12T06:43:47.341Z,98236.25
2023-05-12T06:46:15.390Z,98229.31
2023-05-12T06:48:42.742Z,98233.53
2023-05-12T06:51:10.427Z,98233.13
2023-05-12T06:53:38.202Z,98234.94
2023-05-12T06:56:06.273Z,98239.25
2023-05-12T06:58:33.881Z,98235.41
2023-05-12T07:01:01.446Z,98227.34
2023-05-12T07:03:32.915Z,98236.94
2023-05-12T07:06:01.043Z,98214.19
2023-05-12T07:08:28.450Z,98223.47
2023-05-12T07:10:56.575Z,98218.31
2023-05-12T07:13:23.862Z,98225.94
2023-05-12T07:15:51.541Z,98228.19
2023-05-12T07:18:18.828Z,98223.81
2023-05-12T07:20:46.748Z,98220.84
2023-05-12T07:23:14.113Z,98227.91
2023-05-12T07:25:41.667Z,98217.97
2023-05-12T07:28:09.080Z,98225.28
2023-05-12T07:30:37.723Z,98217.50
2023-05-12T07:33:06.605Z,98215.38
2023-05-12T07:35:34.425Z,98220.03
2023-05-12T07:38:03.368Z,98220.03
2023-05-12T07:40:30.929Z,98211.13
2023-05-12T07:42:58.278Z,98214.25
2023-05-12T07:45:25.916Z,98215.53
2023-05-12T07:47:53.362Z,98211.41
2023-05-12T07:50:21.476Z,98216.91
2023-05-12T07:52:53.783Z,98216.63
2023-05-12T07:55:23.013Z,98210.72
2023-05-12T07:57:51.062Z,98216.91
2023-05-12T08:00:19.528Z,98218.03
2023-05-12T08:02:47.511Z,98220.34
2023-05-12T08:05:15.766Z,98214.88
2023-05-12T08:07:44.021Z,98217.25
2023-05-12T08:10:16.046Z,98209.06
2023-05-12T08:12:43.917Z,98213.13
2023-05-12T08:15:11.632Z,98221.47
2023-05-12T08:17:38.993Z,98219.31
2023-05-12T08:20:07.486Z,98220.84
2023-05-12T08:22:34.750Z,98226.50
2023-05-12T08:25:02.434Z,98228.03
2023-05-12T08:27:29.740Z,98221.59
2023-05-12T08:29:57.429Z,98228.94
2023-05-12T08:32:24.933Z,98227.56
2023-05-12T08:34:52.777Z,98229.53
2023-05-12T08:37:20.991Z,98226.13
2023-05-12T08:39:48.560Z,98231.94
2023-05-12T08:42:40.625Z,98232.78
2023-05-12T08:45:10.596Z,98222.66
2023-05-12T08:47:38.695Z,98234.59
2023-05-12T08:50:10.190Z,98227.78
2023-05-12T08:52:37.492Z,98230.94
2023-05-12T08:55:05.802Z,98225.94
2023-05-12T08:57:34.131Z,98220.31
2023-05-12T09:00:04.869Z,98228.91
2023-05-12T09:02:41.309Z,98237.72
2023-05-12T09:05:16.318Z,98233.75
2023-05-12T09:07:48.041Z,98237.06
2023-05-12T09:10:32.946Z,98240.72
2023-05-12T09:13:26.957Z,98233.56
2023-05-12T09:15:59.013Z,98240.69
2023-05-12T09:18:26.402Z,98239.97
2023-05-12T09:20:53.926Z,98231.53
2023-05-12T09:23:24.733Z,98232.63
2023-05-12T09:26:01.804Z,98234.63
2023-05-12T09:28:39.177Z,98243.47
2023-05-12T09:31:23.132Z,98251.19
2023-05-12T09:33:52.284Z,98255.22
2023-05-12T09:36:22.527Z,98262.91
2023-05-12T09:39:04.696Z,98261.97
2023-05-12T09:41:39.985Z,98271.38
2023-05-12T09:44:09.786Z,98270.59
2023-05-12T09:46:40.078Z,98285.91
2023-05-12T09:49:07.988Z,98263.50
2023-05-12T09:51:35.552Z,98265.41
2023-05-12T09:54:04.626Z,98259.97
2023-05-12T09:56:38.577Z,98238.00
2023-05-12T09:59:06.380Z,98277.00
2023-05-12T10:01:34.993Z,98262.78
2023-05-12T10:04:07.717Z,98264.50
2023-05-12T10:06:45.681Z,98235.81
2023-05-12T10:09:31.627Z,98260.41
2023-05-12T10:12:01.000Z,98262.91
2023-05-12T10:14:29.020Z,98270.16
2023-05-12T10:16:59.444Z,98257.41
2023-05-12T10:19:29.685Z,98274.25
2023-05-12T10:21:58.324Z,98262.50
2023-05-12T10:24:27.598Z,98264.75
2023-05-12T10:26:56.790Z,98263.78
2023-05-12T10:29:30.477Z,98252.81
2023-05-12T10:32:01.147Z,98260.25
2023-05-12T10:34:36.832Z,98256.16
2023-05-12T10:37:11.404Z,98250.59
2023-05-12T10:39:49.732Z,98223.97
2023-05-12T10:42:25.596Z,98217.84
2023-05-12T10:44:55.466Z,98208.50
2023-05-12T10:47:37.199Z,98218.94
2023-05-12T10:50:05.764Z,98210.28
2023-05-12T10:52:33.731Z,98210.84
2023-05-12T10:55:04.197Z,98204.31
2023-05-12T10:57:33.514Z,98194.50
2023-05-12T11:00:03.557Z,98195.66
2023-05-12T11:02:36.323Z,98199.72
2023-05-12T11:05:14.360Z,98203.66
2023-05-12T11:07:50.745Z,98212.31
2023-05-12T11:10:19.635Z,98194.59
2023-05-12T11:12:49.990Z,98210.78
2023-05-12T11:15:18.225Z,98200.19
2023-05-12T11:17:46.824Z,98212.16
2023-05-12T11:20:26.471Z,98201.28
2023-05-12T11:22:55.235Z,98204.34
2023-05-12T11:25:22.745Z,98209.09
2023-05-12T11:27:50.948Z,98209.25
2023-05-12T11:30:18.364Z,98214.06
2023-05-12T11:32:46.208Z,98205.09
2023-05-12T11:35:23.408Z,98205.34
2023-05-12T11:37:51.121Z,98207.28
2023-05-12T11:40:23.324Z,98207.25
2023-05-12T11:42:52.986Z,98211.59
2023-05-12T11:45:30.755Z,98214.31
2023-05-12T11:48:10.040Z,98220.44
2023-05-12T11:50:43.735Z,98209.72
2023-05-12T11:53:19.379Z,98218.81
2023-05-12T11:55:55.928Z,98214.06
2023-05-12T11:58:30.700Z,98221.28
2023-05-12T12:01:11.199Z,98213.13
2023-05-12T12:03:49.931Z,98223.97
2023-05-12T12:06:18.270Z,98226.91
2023-05-12T12:08:54.645Z,98225.22
2023-05-12T12:11:24.278Z,98227.59
2023-05-12T12:13:57.169Z,98226.34
2023-05-12T12:16:31.956Z,98226.72
2023-05-12T12:18:59.729Z,98230.28
2023-05-12T12:21:27.138Z,98217.91
2023-05-12T12:23:54.778Z,98221.88
2023-05-12T12:26:23.821Z,98226.91
2023-05-12T12:28:51.698Z,98214.09
2023-05-12T12:31:19.127Z,98223.50
2023-05-12T12:33:46.679Z,98227.41
2023-05-12T12:36:14.018Z,98218.88
2023-05-12T12:38:41.779Z,98211.38
2023-05-12T12:41:09.145Z,98220.28
2023-05-12T12:43:36.723Z,98230.78
2023-05-12T12:46:04.047Z,98228.28
2023-05-12T12:48:32.278Z,98231.25
2023-05-12T12:51:01.322Z,98231.78
2023-05-12T12:53:28.992Z,98226.34
2023-05-12T12:55:56.624Z,98222.94
2023-05-12T12:58:25.260Z,98231.25
2023-05-12T13:00:52.705Z,98237.78
2023-05-12T13:03:23.163Z,98223.25
2023-05-12T13:05:50.974Z,98223.59
2023-05-12T13:08:18.519Z,98232.16
2023-05-12T13:10:45.982Z,98224.28
2023-05-12T13:13:13.665Z,98230.25
2023-05-12T13:15:42.182Z,98222.09
2023-05-12T13:18:10.113Z,98227.31
2023-05-12T13:20:37.521Z,98221.63
2023-05-12T13:23:05.403Z,98232.25
2023-05-12T13:25:32.656Z,98236.97
2023-05-12T13:28:00.215Z,98240.09
2023-05-12T13:30:27.979Z,98236.81
2023-05-12T13:32:55.731Z,98242.66
2023-05-12T13:35:23.333Z,98224.34
2023-05-12T13:37:51.080Z,98232.78
2023-05-12T13:40:18.587Z,98227.28
2023-05-12T13:42:46.567Z,98215.66
2023-05-12T13:45:13.882Z,98214.44
2023-05-12T13:47:42.341Z,98208.81
2023-05-12T13:50:09.916Z,98212.25
2023-05-12T13:52:37.742Z,98210.34
2023-05-12T13:55:05.559Z,98217.25
2023-05-12T13:57:33.140Z,98206.47
2023-05-12T14:00:00.907Z,98204.97
2023-05-12T14:02:28.527Z,98210.09
2023-05-12T14:04:56.670Z,98210.63
2023-05-12T14:07:25.475Z,98202.72
2023-05-12T14:09:52.703Z,98209.91
2023-05-12T14:12:20.342Z,98196.94
2023-05-12T14:14:50.091Z,98213.81
2023-05-12T14:17:18.791Z,98200.56
2023-05-12T14:19:47.657Z,98205.00
2023-05-12T14:22:25.541Z,98205.41
2023-05-12T14:24:55.604Z,98213.41
2023-05-12T14:27:24.208Z,98208.06
2023-05-12T14:29:51.562Z,98204.47
2023-05-12T14:32:19.081Z,98210.88
2023-05-12T14:34:46.352Z,98222.16
2023-05-12T14:37:13.963Z,98214.56
2023-05-12T14:39:41.256Z,98225.03
2023-05-12T14:42:09.365Z,98219.50
2023-05-12T14:44:36.684Z,98227.06
2023-05-12T14:47:05.205Z,98220.19
2023-05-12T14:49:32.829Z,98215.69
2023-05-12T14:52:00.384Z,98205.84
2023-05-12T14:54:28.695Z,98219.13
2023-05-12T14:56:56.717Z,98216.97
2023-05-12T14:59:24.087Z,98209.22
2023-05-12T15:01:51.710Z,98212.56
2023-05-12T15:04:20.268Z,98211.72
2023-05-12T15:06:47.946Z,98206.75
2023-05-12T15:09:15.283Z,98203.94
2023-05-12T15:11:45.481Z,98198.94
2023-05-12T15:14:13.031Z,98217.72
2023-05-12T15:16:41.049Z,98220.63
2023-05-12T15:19:08.845Z,98215.34
2023-05-12T15:21:36.862Z,98224.09
2023-05-12T15:24:04.582Z,98231.31
2023-05-12T15:26:34.220Z,98209.97
2023-05-12T15:29:02.942Z,98216.09
2023-05-12T15:31:31.079Z,98219.34
2023-05-12T15:33:58.434Z,98225.16
2023-05-12T15:36:26.213Z,98223.31
2023-05-12T15:38:53.776Z,98214.31
2023-05-12T15:41:22.286Z,98223.41
2023-05-12T15:43:49.653Z,98228.88
2023-05-12T15:46:17.571Z,98216.00
2023-05-12T15:48:51.179Z,98238.38
2023-05-12T15:51:18.889Z,98227.50
2023-05-12T15:53:46.327Z,98224.31
2023-05-12T15:56:16.277Z,98229.41
2023-05-12T15:58:45.013Z,98229.94
2023-05-12T16:01:13.287Z,98215.19
2023-05-12T16:03:40.834Z,98225.97
2023-05-12T16:06:09.015Z,98229.69
2023-05-12T16:08:36.523Z,98221.59
2023-05-12T16:11:06.328Z,98228.03
2023-05-12T16:13:34.097Z,98220.63
2023-05-12T16:16:02.712Z,98225.56
2023-05-12T16:18:31.265Z,98219.66
2023-05-12T16:20:59.802Z,98223.22
2023-05-12T16:23:27.092Z,98221.31
2023-05-12T16:25:54.814Z,98221.63
2023-05-12T16:28:22.318Z,98225.78
2023-05-12T16:30:49.872Z,98237.75
2023-05-12T16:33:17.234Z,98235.34
2023-05-12T16:35:44.887Z,98244.81
2023-05-12T16:38:13.487Z,98245.84
2023-05-12T16:40:41.196Z,98251.97
2023-05-12T16:43:08.588Z,98255.66
2023-05-12T16:45:36.210Z,98258.81
2023-05-12T16:48:03.963Z,98261.25
2023-05-12T16:50:32.418Z,98257.28
2023-05-12T16:52:59.812Z,98252.19
2023-05-12T16:55:27.599Z,98245.22
2023-05-12T16:57:54.930Z,98264.44
2023-05-12T17:00:22.620Z,98264.13
2023-05-12T17:02:50.040Z,98270.09
2023-05-12T17:05:17.737Z,98253.50
2023-05-12T17:07:52.618Z,98255.16
2023-05-12T17:10:20.222Z,98261.31
2023-05-12T17:12:47.742Z,98257.81
2023-05-12T17:15:15.644Z,98265.28
2023-05-12T17:17:43.008Z,98263.44
2023-05-12T17:20:11.801Z,98263.75
2023-05-12T17:22:42.733Z,98267.25
2023-05-12T17:25:10.897Z,98271.66
2023-05-12T17:27:38.248Z,98274.00
2023-05-12T17:30:06.977Z,98283.09
2023-05-12T17:32:36.509Z,98279.22
2023-05-12T17:35:04.492Z,98275.56
2023-05-12T17:37:32.018Z,98270.69
2023-05-12T17:40:01.088Z,98279.72
2023-05-12T17:42:31.339Z,98285.34
2023-05-12T17:44:59.164Z,98280.41
2023-05-12T17:47:27.775Z,98290.50
2023-05-12T17:50:02.607Z,98291.06
2023-05-12T17:52:31.263Z,98285.66
2023-05-12T17:55:00.067Z,98301.59
2023-05-12T17:57:27.419Z,98296.53
2023-05-12T17:59:55.078Z,98306.75
2023-05-12T18:02:22.678Z,98302.69
2023-05-12T18:04:50.691Z,98296.28
2023-05-12T18:07:18.157Z,98301.94
2023-05-12T18:09:48.182Z,98291.91
2023-05-12T18:12:17.721Z,98301.81
2023-05-12T18:14:45.463Z,98303.28
2023-05-12T18:17:12.933Z,98307.19
2023-05-12T18:19:40.717Z,98315.81
2023-05-12T18:22:08.131Z,98318.28
2023-05-12T18:24:35.876Z,98317.94
2023-05-12T18:27:06.319Z,98313.78
2023-05-12T18:29:34.095Z,98318.53
2023-05-12T18:32:01.562Z,98323.91
2023-05-12T18:34:30.241Z,98329.53
2023-05-12T18:36:57.486Z,98330.41
2023-05-12T18:39:25.182Z,98331.94
2023-05-12T18:41:54.209Z,98340.69
2023-05-12T18:44:21.911Z,98340.88
2023-05-12T18:46:49.243Z,98341.03
2023-05-12T18:49:16.883Z,98341.44
2023-05-12T18:51:44.182Z,98345.91
2023-05-12T18:54:11.970Z,98335.22
2023-05-12T18:56:39.355Z,98344.50
2023-05-12T18:59:07.067Z,98351.06
2023-05-12T19:01:34.544Z,98350.50
2023-05-12T19:04:02.438Z,98353.84
2023-05-12T19:06:30.175Z,98354.53
2023-05-12T19:08:57.737Z,98350.78
2023-05-12T19:11:25.417Z,98350.63
2023-05-12T19:13:53.081Z,98357.31
2023-05-12T19:16:21.593Z,98356.34
2023-05-12T19:18:49.781Z,98355.75
2023-05-12T19:21:18.309Z,98365.38
2023-05-12T19:23:45.914Z,98359.66
2023-05-12T19:26:13.231Z,98358.16
2023-05-12T19:28:41.002Z,98361.47
2023-05-12T19:31:08.422Z,98366.34
2023-05-12T19:33:36.473Z,98372.72
2023-05-12T19:36:03.976Z,98361.91
2023-05-12T19:38:31.531Z,98361.59
2023-05-12T19:40:59.420Z,98365.06
2023-05-12T19:43:26.977Z,98367.97
2023-05-12T19:45:54.815Z,98377.28
2023-05-12T19:48:22.419Z,98378.06
2023-05-12T19:50:49.764Z,98379.28
2023-05-12T19:53:17.449Z,98372.31
2023-05-12T19:55:44.795Z,98373.97
2023-05-12T19:58:12.411Z,98379.69
2023-05-12T20:00:39.747Z,98379.22
2023-05-12T20:03:07.546Z,98377.56
2023-05-12T20:05:39.075Z,98377.13
2023-05-12T20:08:06.829Z,98385.28
2023-05-12T20:10:34.573Z,98374.72
2023-05-12T20:13:05.136Z,98376.66
2023-05-12T20:15:34.332Z,98374.19
2023-05-12T20:18:01.949Z,98369.97
2023-05-12T20:20:29.553Z,98383.44
2023-05-12T20:22:57.472Z,98372.91
2023-05-12T20:25:27.101Z,98374.66
2023-05-12T20:27:55.669Z,98368.28
2023-05-12T20:30:23.086Z,98372.53
2023-05-12T20:32:51.185Z,98372.66
2023-05-12T20:35:18.738Z,98368.34
2023-05-12T20:37:46.578Z,98366.66
2023-05-12T20:40:14.074Z,98370.69
2023-05-12T20:42:41.799Z,98369.03
2023-05-12T20:45:09.672Z,98366.66
2023-05-12T20:47:37.776Z,98359.75
2023-05-12T20:50:07.187Z,98362.75
2023-05-12T20:52:38.750Z,98356.78
2023-05-12T20:55:07.251Z,98360.38
2023-05-12T20:57:35.023Z,98359.94
2023-05-12T21:00:02.309Z,98365.25
2023-05-12T21:02:29.974Z,98369.06
2023-05-12T21:04:57.542Z,98361.78
2023-05-12T21:07:25.180Z,98362.41
2023-05-12T21:09:52.610Z,98360.06
2023-05-12T21:12:20.470Z,98366.72
2023-05-12T21:14:47.707Z,98361.44
2023-05-12T21:17:17.411Z,98369.09
2023-05-12T21:19:44.959Z,98371.84
2023-05-12T21:22:13.054Z,98367.69
2023-05-12T21:24:40.802Z,98366.84
2023-05-12T21:27:08.472Z,98366.38
2023-05-12T21:29:36.803Z,98372.50
2023-05-12T21:32:04.805Z,98375.72
2023-05-12T21:34:33.791Z,98370.13
2023-05-12T21:37:01.857Z,98370.13
2023-05-12T21:39:29.180Z,98374.94
2023-05-12T21:41:56.741Z,98378.84
2023-05-12T21:44:24.073Z,98375.25
2023-05-12T21:46:51.686Z,98368.78
2023-05-12T21:49:19.255Z,98375.84
2023-05-12T21:51:46.939Z,98372.19
2023-05-12T21:54:14.178Z,98380.19
2023-05-12T21:56:43.134Z,98391.03
2023-05-12T21:59:10.654Z,98390.34
2023-05-12T22:01:38.673Z,98388.59
2023-05-12T22:04:06.089Z,98388.47
2023-05-12T22:06:34.029Z,98385.97
2023-05-12T22:09:02.191Z,98389.56
2023-05-12T22:11:29.781Z,98391.22
2023-05-12T22:13:57.388Z,98388.88
2023-05-12T22:16:38.253Z,98399.44
2023-05-12T22:19:17.222Z,98408.31
2023-05-12T22:21:44.862Z,98411.19
2023-05-12T22:24:12.160Z,98408.63
2023-05-12T22:26:39.677Z,98405.03
2023-05-12T22:29:07.012Z,98414.72
2023-05-12T22:31:34.647Z,98416.06
2023-05-12T22:34:01.892Z,98408.38
2023-05-12T22:36:30.232Z,98411.22
2023-05-12T22:38:57.472Z,98415.19
2023-05-12T22:41:25.358Z,98410.63
2023-05-12T22:43:52.668Z,98407.84
2023-05-12T22:46:20.375Z,98407.28
2023-05-12T22:48:47.772Z,98412.41
2023-05-12T22:51:15.818Z,98411.72
2023-05-12T22:53:43.037Z,98413.59
2023-05-12T22:56:12.564Z,98410.34
2023-05-12T22:58:39.806Z,98405.34
2023-05-12T23:01:07.487Z,98409.22
2023-05-12T23:03:34.825Z,98414.47
2023-05-12T23:06:02.517Z,98406.13
2023-05-12T23:08:31.661Z,98413.31
2023-05-12T23:11:00.834Z,98413.06
2023-05-12T23:13:30.904Z,98414.69
2023-05-12T23:15:58.435Z,98406.81
2023-05-12T23:18:25.738Z,98415.03
2023-05-12T23:20:54.722Z,98410.22
2023-05-12T23:23:22.057Z,98409.66
2023-05-12T23:25:50.089Z,98407.63
2023-05-12T23:28:17.391Z,98413.59
2023-05-12T23:30:44.896Z,98401.94
2023-05-12T23:33:12.298Z,98407.28
2023-05-12T23:35:39.862Z,98404.78
2023-05-12T23:38:07.363Z,98403.25
2023-05-12T23:40:39.145Z,98405.56
2023-05-12T23:43:07.176Z,98408.22
2023-05-12T23:45:35.288Z,98409.09
2023-05-12T23:48:02.819Z,98403.50
2023-05-12T23:50:30.459Z,98406.13
2023-05-12T23:52:57.763Z,98402.41
2023-05-12T23:55:25.416Z,98410.75
2023-05-12T23:57:52.689Z,98409.41
